createdAt,value
2022-08-12T11:19:13.986Z,1009.28
2022-08-12T11:20:15.083Z,1009.23
2022-08-12T11:21:16.025Z,1009.18
2022-08-12T11:22:13.934Z,1009.17
2022-08-12T11:23:25.914Z,1009.22
2022-08-12T11:24:30.028Z,1009.23
2022-08-12T11:25:13.915Z,1009.22
2022-08-12T11:26:13.898Z,1009.21
2022-08-12T11:27:13.877Z,1009.16
2022-08-12T11:28:13.896Z,1009.22
2022-08-12T11:29:22.423Z,1009.20
2022-08-12T11:30:31.331Z,1009.22
2022-08-12T11:31:14.395Z,1009.15
2022-08-12T11:32:13.830Z,1009.20
2022-08-12T11:33:24.389Z,1009.21
2022-08-12T11:34:51.477Z,1009.17
2022-08-12T11:35:13.848Z,1009.13
2022-08-12T11:36:14.610Z,1009.15
2022-08-12T11:37:25.377Z,1009.13
2022-08-12T11:38:13.734Z,1009.14
2022-08-12T11:39:13.765Z,1009.05
2022-08-12T11:40:13.749Z,1009.10
2022-08-12T11:41:13.715Z,1009.07
2022-08-12T11:42:13.709Z,1009.09
2022-08-12T11:43:18.778Z,1009.07
2022-08-12T11:44:35.549Z,1009.04
2022-08-12T11:45:16.298Z,1009.10
2022-08-12T11:46:13.657Z,1009.04
2022-08-12T11:47:13.649Z,1009.09
2022-08-12T11:48:15.257Z,1009.11
2022-08-12T11:49:13.632Z,1009.12
2022-08-12T11:50:19.100Z,1009.07
2022-08-12T11:51:13.630Z,1009.04
2022-08-12T11:52:35.270Z,1009.01
2022-08-12T11:53:57.566Z,1009.02
2022-08-12T11:54:14.782Z,1008.92
2022-08-12T11:55:15.013Z,1009.01
2022-08-12T11:56:13.587Z,1009.00
2022-08-12T11:58:36.564Z,1009.00
2022-08-12T11:59:28.634Z,1008.98
2022-08-12T12:01:58.710Z,1008.96
2022-08-12T12:02:17.553Z,1009.00
2022-08-12T12:03:13.608Z,1009.00
2022-08-12T12:04:28.983Z,1009.01
2022-08-12T12:05:13.486Z,1008.97
2022-08-12T12:06:16.214Z,1008.96
2022-08-12T12:07:13.467Z,1008.98
2022-08-12T12:08:40.430Z,1008.92
2022-08-12T12:09:13.451Z,1008.89
2022-08-12T12:10:13.454Z,1008.92
2022-08-12T12:11:13.446Z,1008.94
2022-08-12T12:12:13.427Z,1008.95
2022-08-12T12:13:23.156Z,1008.95
2022-08-12T12:14:13.423Z,1008.93
2022-08-12T12:15:13.474Z,1008.95
2022-08-12T12:16:13.414Z,1008.93
2022-08-12T12:17:13.391Z,1008.90
2022-08-12T12:18:13.380Z,1008.90
2022-08-12T12:19:13.370Z,1008.88
2022-08-12T12:20:13.364Z,1008.95
2022-08-12T12:21:13.371Z,1008.92
2022-08-12T12:22:15.823Z,1008.89
2022-08-12T12:23:29.286Z,1008.87
2022-08-12T12:24:13.337Z,1008.86
2022-08-12T12:25:14.051Z,1008.82
2022-08-12T12:26:34.931Z,1008.86
2022-08-12T12:27:13.328Z,1008.86
2022-08-12T12:28:36.702Z,1008.78
2022-08-12T12:30:18.437Z,1008.78
2022-08-12T12:30:25.214Z,1008.73
2022-08-12T12:31:15.255Z,1008.76
2022-08-12T12:32:13.269Z,1008.72
2022-08-12T12:33:18.067Z,1008.71
2022-08-12T12:34:13.239Z,1008.70
2022-08-12T12:36:06.443Z,1008.64
2022-08-12T12:36:20.129Z,1008.67
2022-08-12T12:37:16.465Z,1008.68
2022-08-12T12:38:13.224Z,1008.66
2022-08-12T12:39:13.240Z,1008.66
2022-08-12T12:40:13.381Z,1008.67
2022-08-12T12:41:16.574Z,1008.67
2022-08-12T12:42:42.498Z,1008.70
2022-08-12T12:43:13.827Z,1008.65
2022-08-12T12:44:13.393Z,1008.62
2022-08-12T12:45:19.775Z,1008.61
2022-08-12T12:46:13.138Z,1008.59
2022-08-12T12:47:28.638Z,1008.58
2022-08-12T12:48:13.133Z,1008.57
2022-08-12T12:49:15.374Z,1008.55
2022-08-12T12:50:13.109Z,1008.54
2022-08-12T12:51:13.114Z,1008.51
2022-08-12T12:52:19.687Z,1008.45
2022-08-12T12:54:05.339Z,1008.44
2022-08-12T12:54:13.088Z,1008.44
2022-08-12T12:55:13.272Z,1008.39
2022-08-12T12:56:13.073Z,1008.41
2022-08-12T12:57:13.076Z,1008.38
2022-08-12T12:58:13.048Z,1008.35
2022-08-12T12:59:55.366Z,1008.28
2022-08-12T13:00:13.063Z,1008.30
2022-08-12T13:01:27.985Z,1008.29
2022-08-12T13:02:13.062Z,1008.32
2022-08-12T13:03:19.162Z,1008.27
2022-08-12T13:04:14.620Z,1008.34
2022-08-12T13:05:14.078Z,1008.33
2022-08-12T13:06:12.984Z,1008.34
2022-08-12T13:07:12.976Z,1008.34
2022-08-12T13:08:12.982Z,1008.31
2022-08-12T13:09:13.447Z,1008.31
2022-08-12T13:10:13.295Z,1008.31
2022-08-12T13:11:12.955Z,1008.30
2022-08-12T13:12:12.950Z,1008.30
2022-08-12T13:14:07.255Z,1008.29
2022-08-12T13:14:28.161Z,1008.31
2022-08-12T13:15:12.916Z,1008.30
2022-08-12T13:16:14.291Z,1008.28
2022-08-12T13:17:14.833Z,1008.27
2022-08-12T13:18:12.909Z,1008.29
2022-08-12T13:19:12.902Z,1008.24
2022-08-12T13:20:12.901Z,1008.25
2022-08-12T13:21:15.615Z,1008.28
2022-08-12T13:22:12.878Z,1008.26
2022-08-12T13:23:35.906Z,1008.26
2022-08-12T13:24:12.858Z,1008.21
2022-08-12T13:25:12.850Z,1008.24
2022-08-12T13:26:14.578Z,1008.26
2022-08-12T13:27:12.836Z,1008.25
2022-08-12T13:28:12.842Z,1008.19
2022-08-12T13:29:12.831Z,1008.20
2022-08-12T13:30:12.826Z,1008.19
2022-08-12T13:31:12.808Z,1008.20
2022-08-12T13:32:28.331Z,1008.14
2022-08-12T13:33:17.576Z,1008.21
2022-08-12T13:34:34.258Z,1008.16
2022-08-12T13:35:33.257Z,1008.20
2022-08-12T13:36:18.273Z,1008.19
2022-08-12T13:37:12.771Z,1008.19
2022-08-12T13:38:12.775Z,1008.12
2022-08-12T13:39:12.822Z,1008.28
2022-08-12T13:40:12.754Z,1008.21
2022-08-12T13:41:12.764Z,1008.18
2022-08-12T13:42:14.249Z,1008.19
2022-08-12T13:43:13.225Z,1008.19
2022-08-12T13:44:12.754Z,1008.18
2022-08-12T13:45:12.723Z,1008.16
2022-08-12T13:46:12.732Z,1008.19
2022-08-12T13:47:19.561Z,1008.18
2022-08-12T13:48:12.707Z,1008.10
2022-08-12T13:49:17.465Z,1008.14
2022-08-12T13:50:12.704Z,1008.16
2022-08-12T13:51:12.687Z,1008.17
2022-08-12T13:52:13.845Z,1008.16
2022-08-12T13:53:24.461Z,1008.08
2022-08-12T13:54:14.174Z,1008.11
2022-08-12T13:55:12.694Z,1008.09
2022-08-12T13:56:12.659Z,1008.12
2022-08-12T13:57:16.973Z,1008.13
2022-08-12T13:58:12.789Z,1008.16
2022-08-12T13:59:12.651Z,1008.13
2022-08-12T14:00:12.660Z,1008.12
2022-08-12T14:01:12.630Z,1008.09
2022-08-12T14:02:12.696Z,1008.06
2022-08-12T14:03:12.653Z,1008.05
2022-08-12T14:04:12.692Z,1007.94
2022-08-12T14:05:31.510Z,1008.02
2022-08-12T14:06:15.445Z,1008.03
2022-08-12T14:07:12.612Z,1008.01
2022-08-12T14:08:12.607Z,1008.00
2022-08-12T14:09:17.849Z,1007.92
2022-08-12T14:10:16.059Z,1008.01
2022-08-12T14:11:13.276Z,1008.03
2022-08-12T14:12:16.351Z,1007.99
2022-08-12T14:13:17.136Z,1008.01
2022-08-12T14:14:13.070Z,1008.00
2022-08-12T14:15:12.576Z,1007.94
2022-08-12T14:16:14.428Z,1007.96
2022-08-12T14:17:12.549Z,1008.01
2022-08-12T14:18:13.123Z,1008.03
2022-08-12T14:19:22.483Z,1008.06
2022-08-12T14:20:12.539Z,1008.03
2022-08-12T14:21:18.268Z,1008.00
2022-08-12T14:22:12.538Z,1008.02
2022-08-12T14:24:02.091Z,1008.03
2022-08-12T14:24:12.525Z,1007.99
2022-08-12T14:25:12.517Z,1008.06
2022-08-12T14:26:13.611Z,1007.96
2022-08-12T14:27:12.519Z,1007.93
2022-08-12T14:28:12.516Z,1007.92
2022-08-12T14:29:21.772Z,1007.92
2022-08-12T14:30:15.304Z,1007.88
2022-08-12T14:31:18.323Z,1007.86
2022-08-12T14:32:16.568Z,1007.84
2022-08-12T14:33:12.490Z,1007.83
2022-08-12T14:34:12.497Z,1007.81
2022-08-12T14:35:12.508Z,1007.86
2022-08-12T14:36:12.858Z,1007.86
2022-08-12T14:37:12.952Z,1007.82
2022-08-12T14:38:12.484Z,1007.85
2022-08-12T14:39:12.530Z,1007.83
2022-08-12T14:40:18.378Z,1007.87
2022-08-12T14:41:12.482Z,1007.87
2022-08-12T14:42:12.475Z,1007.85
2022-08-12T14:43:12.467Z,1007.82
2022-08-12T14:44:57.001Z,1007.80
2022-08-12T14:45:12.604Z,1007.78
2022-08-12T14:46:12.462Z,1007.76
2022-08-12T14:47:12.485Z,1007.80
2022-08-12T14:48:12.459Z,1007.80
2022-08-12T14:50:00.776Z,1007.87
2022-08-12T14:50:58.856Z,1007.84
2022-08-12T14:52:42.711Z,1007.86
2022-08-12T14:53:11.602Z,1007.87
2022-08-12T14:55:13.870Z,1007.86
2022-08-12T14:57:23.201Z,1007.87
2022-08-12T14:58:12.426Z,1007.85
2022-08-12T14:59:20.674Z,1007.84
2022-08-12T15:00:12.436Z,1007.82
2022-08-12T15:01:12.455Z,1007.79
2022-08-12T15:02:12.437Z,1007.79
2022-08-12T15:03:12.426Z,1007.83
2022-08-12T15:04:12.426Z,1007.81
2022-08-12T15:05:12.416Z,1007.74
2022-08-12T15:06:39.094Z,1007.73
2022-08-12T15:07:34.109Z,1007.71
2022-08-12T15:08:12.899Z,1007.68
2022-08-12T15:09:12.488Z,1007.67
2022-08-12T15:10:12.711Z,1007.60
2022-08-12T15:11:12.414Z,1007.60
2022-08-12T15:12:14.602Z,1007.58
2022-08-12T15:13:12.438Z,1007.53
2022-08-12T15:14:13.796Z,1007.49
2022-08-12T15:15:12.412Z,1007.53
2022-08-12T15:16:12.412Z,1007.49
2022-08-12T15:17:12.410Z,1007.54
2022-08-12T15:18:12.434Z,1007.60
2022-08-12T15:20:27.912Z,1007.72
2022-08-12T15:20:32.552Z,1007.74
2022-08-12T15:21:12.413Z,1007.82
2022-08-12T15:22:37.726Z,1007.79
2022-08-12T15:23:18.047Z,1007.92
2022-08-12T15:24:12.413Z,1008.14
2022-08-12T15:25:17.826Z,1008.27
2022-08-12T15:26:21.192Z,1008.22
2022-08-12T15:27:12.410Z,1008.29
2022-08-12T15:28:21.512Z,1008.25
2022-08-12T15:29:12.442Z,1008.21
2022-08-12T15:30:12.406Z,1008.19
2022-08-12T15:31:27.362Z,1008.15
2022-08-12T15:32:16.129Z,1008.02
2022-08-12T15:33:18.766Z,1008.01
2022-08-12T15:34:12.409Z,1007.99
2022-08-12T15:35:12.400Z,1007.97
2022-08-12T15:36:12.406Z,1007.93
2022-08-12T15:37:12.402Z,1007.89
2022-08-12T15:38:15.947Z,1007.90
2022-08-12T15:39:16.829Z,1007.87
2022-08-12T15:40:12.444Z,1007.89
2022-08-12T15:41:12.401Z,1007.94
2022-08-12T15:42:12.425Z,1008.00
2022-08-12T15:43:12.402Z,1008.04
2022-08-12T15:44:36.786Z,1008.07
2022-08-12T15:45:12.411Z,1008.10
2022-08-12T15:46:14.800Z,1008.14
2022-08-12T15:47:12.416Z,1008.16
2022-08-12T15:48:20.158Z,1008.23
2022-08-12T15:49:16.929Z,1008.31
2022-08-12T15:50:23.018Z,1008.39
2022-08-12T15:51:12.411Z,1008.52
2022-08-12T15:52:27.037Z,1008.58
2022-08-12T15:53:14.420Z,1008.61
2022-08-12T15:54:33.933Z,1008.58
2022-08-12T15:55:12.405Z,1008.52
2022-08-12T15:56:12.512Z,1008.27
2022-08-12T15:57:17.007Z,1008.20
2022-08-12T15:58:12.408Z,1008.38
2022-08-12T15:59:12.415Z,1008.51
2022-08-12T16:00:32.006Z,1008.38
2022-08-12T16:01:12.403Z,1008.25
2022-08-12T16:02:12.408Z,1008.17
2022-08-12T16:03:13.696Z,1008.01
2022-08-12T16:04:12.420Z,1007.97
2022-08-12T16:06:11.280Z,1007.97
2022-08-12T16:06:25.763Z,1007.89
2022-08-12T16:07:12.436Z,1007.82
2022-08-12T16:08:19.813Z,1007.81
2022-08-12T16:09:12.473Z,1007.78
2022-08-12T16:10:12.401Z,1007.70
2022-08-12T16:11:15.322Z,1007.71
2022-08-12T16:12:12.488Z,1007.72
2022-08-12T16:13:12.412Z,1007.65
2022-08-12T16:14:12.408Z,1007.65
2022-08-12T16:15:13.436Z,1007.62
2022-08-12T16:16:23.470Z,1007.64
2022-08-12T16:17:15.466Z,1007.64
2022-08-12T16:18:19.920Z,1007.59
2022-08-12T16:20:02.365Z,1007.59
2022-08-12T16:20:12.411Z,1007.57
2022-08-12T16:21:50.452Z,1007.56
2022-08-12T16:22:12.399Z,1007.56
2022-08-12T16:23:36.206Z,1007.52
2022-08-12T16:24:12.404Z,1007.53
2022-08-12T16:25:12.418Z,1007.49
2022-08-12T16:26:15.500Z,1007.52
2022-08-12T16:27:12.403Z,1007.58
2022-08-12T16:28:12.422Z,1007.58
2022-08-12T16:29:15.488Z,1007.57
2022-08-12T16:30:12.415Z,1007.57
2022-08-12T16:31:16.970Z,1007.57
2022-08-12T16:32:12.415Z,1007.51
2022-08-12T16:33:12.448Z,1007.51
2022-08-12T16:34:38.391Z,1007.50
2022-08-12T16:35:16.408Z,1007.54
2022-08-12T16:36:12.408Z,1007.50
2022-08-12T16:37:12.420Z,1007.55
2022-08-12T16:38:27.360Z,1007.53
2022-08-12T16:39:12.457Z,1007.51
2022-08-12T16:40:12.504Z,1007.49
2022-08-12T16:41:12.431Z,1007.46
2022-08-12T16:42:12.452Z,1007.48
2022-08-12T16:43:13.037Z,1007.45
2022-08-12T16:44:12.422Z,1007.49
2022-08-12T16:45:13.722Z,1007.43
2022-08-12T16:46:31.120Z,1007.43
2022-08-12T16:47:12.405Z,1007.42
2022-08-12T16:48:34.072Z,1007.43
2022-08-12T16:49:13.782Z,1007.43
2022-08-12T16:50:14.611Z,1007.42
2022-08-12T16:51:12.464Z,1007.42
2022-08-12T16:52:12.572Z,1007.40
2022-08-12T16:53:12.415Z,1007.38
2022-08-12T16:54:14.127Z,1007.37
2022-08-12T16:55:13.080Z,1007.34
2022-08-12T16:56:12.450Z,1007.23
2022-08-12T16:57:12.414Z,1007.34
2022-08-12T16:58:28.428Z,1007.29
2022-08-12T16:59:16.147Z,1007.25
2022-08-12T17:00:13.224Z,1007.17
2022-08-12T17:01:14.051Z,1007.06
2022-08-12T17:02:12.418Z,1007.05
2022-08-12T17:03:12.388Z,1007.09
2022-08-12T17:04:12.398Z,1007.20
2022-08-12T17:05:12.385Z,1007.16
2022-08-12T17:06:12.385Z,1007.08
2022-08-12T17:07:12.401Z,1007.01
2022-08-12T17:08:12.373Z,1007.02
2022-08-12T17:09:17.327Z,1007.02
2022-08-12T17:10:12.373Z,1007.02
2022-08-12T17:11:12.370Z,1006.99
2022-08-12T17:12:12.374Z,1006.97
2022-08-12T17:13:12.352Z,1006.95
2022-08-12T17:14:12.367Z,1006.92
2022-08-12T17:15:50.374Z,1006.95
2022-08-12T17:16:18.029Z,1006.98
2022-08-12T17:17:26.205Z,1006.97
2022-08-12T17:18:42.119Z,1006.95
2022-08-12T17:19:12.318Z,1006.96
2022-08-12T17:20:35.157Z,1007.01
2022-08-12T17:21:12.315Z,1006.99
2022-08-12T17:30:02.256Z,1006.93
